createdAt,value
2022-11-17T00:00:35.514Z,6.74
2022-11-17T00:03:04.653Z,6.75
2022-11-17T00:05:32.335Z,6.79
2022-11-17T00:07:59.980Z,6.59
2022-11-17T00:10:27.633Z,6.67
2022-11-17T00:13:12.674Z,6.70
2022-11-17T00:15:43.831Z,6.61
2022-11-17T00:18:38.639Z,6.52
2022-11-17T00:21:23.357Z,6.66
2022-11-17T00:23:51.210Z,6.78
2022-11-17T00:26:20.404Z,6.57
2022-11-17T00:28:48.232Z,6.55
2022-11-17T00:31:33.949Z,6.64
2022-11-17T00:34:05.733Z,6.45
2022-11-17T00:36:35.559Z,6.50
2022-11-17T00:39:03.619Z,6.53
2022-11-17T00:41:31.992Z,6.38
2022-11-17T00:43:59.692Z,6.53
2022-11-17T00:46:27.706Z,6.41
2022-11-17T00:48:55.508Z,6.41
2022-11-17T00:51:25.374Z,6.58
2022-11-17T00:53:53.629Z,6.63
2022-11-17T00:56:21.435Z,6.48
2022-11-17T00:58:49.088Z,6.37
2022-11-17T01:01:17.084Z,6.19
2022-11-17T01:03:44.954Z,6.36
2022-11-17T01:06:14.355Z,6.39
2022-11-17T01:08:43.969Z,6.25
2022-11-17T01:11:13.285Z,6.33
2022-11-17T01:13:41.972Z,6.22
2022-11-17T01:16:12.290Z,6.28
2022-11-17T01:18:41.008Z,6.32
2022-11-17T01:21:11.465Z,6.34
2022-11-17T01:23:40.807Z,6.30
2022-11-17T01:26:11.922Z,6.33
2022-11-17T01:28:40.553Z,6.26
2022-11-17T01:31:11.575Z,6.19
2022-11-17T01:33:39.273Z,6.20
2022-11-17T01:36:09.406Z,6.13
2022-11-17T01:38:37.176Z,6.25
2022-11-17T01:41:07.747Z,6.37
2022-11-17T01:43:43.059Z,6.19
2022-11-17T01:46:19.075Z,6.27
2022-11-17T01:48:48.036Z,6.28
2022-11-17T01:51:17.002Z,6.22
2022-11-17T01:53:47.001Z,6.11
2022-11-17T01:56:18.676Z,6.05
2022-11-17T01:58:53.193Z,6.10
2022-11-17T02:01:20.965Z,6.05
2022-11-17T02:03:51.581Z,5.95
2022-11-17T02:06:25.844Z,5.96
2022-11-17T02:08:54.763Z,5.92
2022-11-17T02:11:23.914Z,5.93
2022-11-17T02:13:55.585Z,6.00
2022-11-17T02:16:23.236Z,6.05
2022-11-17T02:18:50.953Z,6.00
2022-11-17T02:21:35.717Z,6.04
2022-11-17T02:24:35.531Z,6.07
2022-11-17T02:27:35.802Z,6.15
2022-11-17T02:30:05.787Z,6.16
2022-11-17T02:32:46.991Z,6.04
2022-11-17T02:35:23.532Z,6.01
2022-11-17T02:38:00.366Z,5.92
2022-11-17T02:40:33.585Z,5.91
2022-11-17T02:43:23.984Z,5.91
2022-11-17T02:45:55.051Z,5.84
2022-11-17T02:48:28.448Z,5.99
2022-11-17T02:50:58.415Z,5.86
2022-11-17T02:53:28.551Z,6.03
2022-11-17T02:55:56.258Z,5.91
2022-11-17T02:58:25.473Z,5.95
2022-11-17T03:01:04.779Z,5.96
2022-11-17T03:03:45.689Z,6.05
2022-11-17T03:06:24.417Z,6.01
2022-11-17T03:09:01.930Z,5.89
2022-11-17T03:11:38.427Z,5.98
2022-11-17T03:14:12.015Z,5.87
2022-11-17T03:16:51.583Z,6.01
2022-11-17T03:19:26.345Z,5.90
2022-11-17T03:22:00.373Z,5.82
2022-11-17T03:24:31.135Z,5.82
2022-11-17T03:27:03.379Z,5.87
2022-11-17T03:29:36.272Z,5.87
2022-11-17T03:32:07.500Z,5.83
2022-11-17T03:34:38.564Z,5.66
2022-11-17T03:37:09.915Z,5.80
2022-11-17T03:39:41.587Z,5.78
2022-11-17T03:42:14.663Z,5.82
2022-11-17T03:44:48.389Z,5.90
2022-11-17T03:47:18.619Z,5.84
2022-11-17T03:49:52.208Z,5.90
2022-11-17T03:52:21.338Z,5.74
2022-11-17T03:54:49.274Z,5.82
2022-11-17T03:57:20.985Z,5.87
2022-11-17T03:59:58.215Z,5.74
2022-11-17T04:02:27.895Z,5.88
2022-11-17T04:05:07.677Z,5.94
2022-11-17T04:07:37.341Z,5.90
2022-11-17T04:10:06.161Z,5.79
2022-11-17T04:12:51.671Z,5.82
2022-11-17T04:15:38.231Z,5.64
2022-11-17T04:18:06.299Z,5.76
2022-11-17T04:20:36.809Z,5.74
2022-11-17T04:23:11.379Z,5.60
2022-11-17T04:25:58.685Z,5.64
2022-11-17T04:28:40.283Z,5.65
2022-11-17T04:31:12.707Z,5.63
2022-11-17T04:33:42.160Z,5.61
2022-11-17T04:36:11.504Z,5.63
2022-11-17T04:38:42.300Z,5.64
2022-11-17T04:41:29.789Z,5.65
2022-11-17T04:43:57.881Z,5.54
2022-11-17T04:46:27.877Z,5.66
2022-11-17T04:48:56.315Z,5.67
2022-11-17T04:51:24.763Z,5.63
2022-11-17T04:53:53.123Z,5.75
2022-11-17T04:56:21.890Z,5.70
2022-11-17T04:58:50.524Z,5.60
2022-11-17T05:01:18.835Z,5.67
2022-11-17T05:03:49.912Z,5.61
2022-11-17T05:06:19.458Z,5.62
2022-11-17T05:08:47.553Z,5.49
2022-11-17T05:11:34.257Z,5.70
2022-11-17T05:14:02.556Z,5.73
2022-11-17T05:16:47.710Z,5.76
2022-11-17T05:19:19.102Z,5.58
2022-11-17T05:21:46.782Z,5.57
2022-11-17T05:24:14.309Z,5.59
2022-11-17T05:26:43.561Z,5.60
2022-11-17T05:29:13.023Z,5.57
2022-11-17T05:31:40.971Z,5.55
2022-11-17T05:34:10.466Z,5.61
2022-11-17T05:36:40.112Z,5.51
2022-11-17T05:39:08.412Z,5.46
2022-11-17T05:41:37.043Z,5.46
2022-11-17T05:44:05.396Z,5.48
2022-11-17T05:46:33.076Z,5.41
2022-11-17T05:49:00.991Z,5.55
2022-11-17T05:51:28.664Z,5.53
2022-11-17T05:53:57.690Z,5.42
2022-11-17T05:56:36.435Z,5.51
2022-11-17T05:59:13.063Z,5.48
2022-11-17T06:01:47.463Z,5.52
2022-11-17T06:04:20.084Z,5.50
2022-11-17T06:06:48.976Z,5.32
2022-11-17T06:09:18.033Z,5.39
2022-11-17T06:11:45.740Z,5.35
2022-11-17T06:14:13.595Z,5.28
2022-11-17T06:16:44.893Z,5.30
2022-11-17T06:19:17.459Z,5.25
2022-11-17T06:22:10.736Z,5.33
2022-11-17T06:24:34.822Z,5.26
2022-11-17T06:27:02.628Z,5.24
2022-11-17T06:29:31.061Z,5.14
2022-11-17T06:31:59.937Z,5.22
2022-11-17T06:34:28.795Z,5.21
2022-11-17T06:36:56.378Z,5.31
2022-11-17T06:39:23.998Z,5.13
2022-11-17T06:41:52.993Z,5.22
2022-11-17T06:44:20.634Z,5.12
2022-11-17T06:46:49.287Z,5.22
2022-11-17T06:49:17.397Z,5.21
2022-11-17T06:51:45.761Z,5.30
2022-11-17T06:54:14.772Z,5.14
2022-11-17T06:56:43.575Z,5.15
2022-11-17T06:59:15.914Z,5.07
2022-11-17T07:01:44.217Z,5.04
2022-11-17T07:04:12.005Z,4.96
2022-11-17T07:06:39.840Z,5.07
2022-11-17T07:09:07.649Z,5.14
2022-11-17T07:11:35.957Z,5.00
2022-11-17T07:14:04.130Z,4.92
2022-11-17T07:16:33.448Z,4.88
2022-11-17T07:19:03.364Z,4.96
2022-11-17T07:21:31.092Z,4.97
2022-11-17T07:23:58.927Z,4.82
2022-11-17T07:26:26.596Z,4.84
2022-11-17T07:28:54.295Z,4.73
2022-11-17T07:31:22.287Z,4.77
2022-11-17T07:33:51.364Z,4.67
2022-11-17T07:36:19.003Z,4.61
2022-11-17T07:38:47.378Z,4.89
2022-11-17T07:41:15.836Z,4.89
2022-11-17T07:43:43.484Z,4.88
2022-11-17T07:46:13.422Z,4.82
2022-11-17T07:48:41.339Z,4.97
2022-11-17T07:51:10.697Z,5.00
2022-11-17T07:53:38.296Z,4.72
2022-11-17T07:56:07.723Z,4.88
2022-11-17T07:58:36.377Z,4.83
2022-11-17T08:01:05.938Z,4.87
2022-11-17T08:03:33.730Z,4.91
2022-11-17T08:06:02.859Z,4.98
2022-11-17T08:08:32.389Z,4.91
2022-11-17T08:11:03.002Z,4.67
2022-11-17T08:13:30.906Z,4.72
2022-11-17T08:15:59.129Z,4.77
2022-11-17T08:18:27.322Z,4.74
2022-11-17T08:21:01.852Z,4.67
2022-11-17T08:23:29.515Z,4.50
2022-11-17T08:25:58.650Z,4.45
2022-11-17T08:28:26.366Z,4.45
2022-11-17T08:30:54.397Z,4.43
2022-11-17T08:33:22.271Z,4.58
2022-11-17T08:35:49.987Z,4.59
2022-11-17T08:38:18.219Z,4.38
2022-11-17T08:40:47.613Z,4.50
2022-11-17T08:43:16.583Z,4.40
2022-11-17T08:45:44.321Z,4.44
2022-11-17T08:48:12.104Z,4.54
2022-11-17T08:50:40.038Z,4.58
2022-11-17T08:53:07.752Z,4.79
2022-11-17T08:55:41.253Z,4.62
2022-11-17T08:58:09.705Z,4.54
2022-11-17T09:00:38.803Z,4.55
2022-11-17T09:03:07.290Z,4.66
2022-11-17T09:05:39.373Z,4.49
2022-11-17T09:08:37.870Z,4.56
2022-11-17T09:10:55.224Z,4.61
2022-11-17T09:13:23.135Z,4.58
2022-11-17T09:15:52.355Z,4.54
2022-11-17T09:18:20.128Z,4.60
2022-11-17T09:20:47.842Z,4.71
2022-11-17T09:23:15.777Z,4.64
2022-11-17T09:25:43.553Z,4.75
2022-11-17T09:28:11.272Z,4.75
2022-11-17T09:30:39.241Z,4.67
2022-11-17T09:33:08.341Z,4.68
2022-11-17T09:35:36.071Z,4.60
2022-11-17T09:38:04.105Z,4.65
2022-11-17T09:40:37.465Z,4.71
2022-11-17T09:43:08.933Z,4.77
2022-11-17T09:45:39.683Z,4.77
2022-11-17T09:48:43.693Z,4.69
2022-11-17T09:51:05.065Z,4.76
2022-11-17T09:53:44.247Z,4.74
2022-11-17T09:56:14.456Z,4.82
2022-11-17T09:58:47.104Z,4.84
2022-11-17T10:01:17.867Z,4.79
2022-11-17T10:03:49.138Z,4.84
2022-11-17T10:06:20.189Z,4.87
2022-11-17T10:09:00.475Z,4.92
2022-11-17T10:11:33.546Z,4.82
2022-11-17T10:14:12.517Z,4.76
2022-11-17T10:16:43.002Z,4.73
2022-11-17T10:19:16.741Z,4.87
2022-11-17T10:21:45.067Z,4.80
2022-11-17T10:24:32.865Z,4.83
2022-11-17T10:27:02.059Z,4.93
2022-11-17T10:29:30.044Z,4.99
2022-11-17T10:31:59.633Z,4.95
2022-11-17T10:34:40.322Z,4.84
2022-11-17T10:37:25.716Z,4.90
2022-11-17T10:40:10.318Z,4.96
2022-11-17T10:42:54.646Z,5.01
2022-11-17T10:45:22.558Z,5.03
2022-11-17T10:47:50.737Z,5.09
2022-11-17T10:50:25.293Z,5.00
2022-11-17T10:52:54.594Z,5.00
2022-11-17T10:55:28.326Z,5.10
2022-11-17T10:58:01.018Z,5.00
2022-11-17T11:00:31.924Z,5.21
2022-11-17T11:03:15.697Z,5.00
2022-11-17T11:06:01.345Z,5.00
2022-11-17T11:08:34.715Z,5.05
2022-11-17T11:11:07.196Z,5.16
2022-11-17T11:13:42.320Z,5.10
2022-11-17T11:16:12.558Z,5.26
2022-11-17T11:18:40.419Z,5.26
2022-11-17T11:21:17.349Z,5.30
2022-11-17T11:23:51.929Z,5.27
2022-11-17T11:26:49.096Z,5.34
2022-11-17T11:29:28.961Z,5.36
2022-11-17T11:32:17.485Z,5.44
2022-11-17T11:35:04.803Z,5.28
2022-11-17T11:37:44.778Z,5.30
2022-11-17T11:40:21.761Z,5.30
2022-11-17T11:42:57.635Z,5.30
2022-11-17T11:45:42.501Z,5.23
2022-11-17T11:48:17.949Z,5.23
2022-11-17T11:50:57.586Z,5.21
2022-11-17T11:53:32.876Z,5.22
2022-11-17T11:56:10.476Z,5.24
2022-11-17T11:58:43.423Z,5.16
2022-11-17T12:01:13.073Z,5.08
2022-11-17T12:03:48.527Z,5.25
2022-11-17T12:06:43.664Z,5.11
2022-11-17T12:09:32.840Z,5.21
2022-11-17T12:12:03.193Z,5.20
2022-11-17T12:14:35.223Z,5.27
2022-11-17T12:17:07.293Z,5.07
2022-11-17T12:19:52.490Z,5.19
2022-11-17T12:22:53.803Z,5.35
2022-11-17T12:25:30.171Z,5.16
2022-11-17T12:27:57.912Z,5.27
2022-11-17T12:30:54.880Z,5.27
2022-11-17T12:33:23.375Z,5.30
2022-11-17T12:36:30.966Z,5.28
2022-11-17T12:39:00.926Z,5.39
2022-11-17T12:42:07.917Z,5.23
2022-11-17T12:45:01.053Z,5.28
2022-11-17T12:47:30.745Z,5.25
2022-11-17T12:50:28.268Z,5.26
2022-11-17T12:53:20.106Z,5.26
2022-11-17T12:56:16.914Z,5.22
2022-11-17T12:58:59.317Z,5.28
2022-11-17T13:01:38.796Z,5.33
2022-11-17T13:04:13.208Z,5.34
2022-11-17T13:06:59.484Z,5.32
2022-11-17T13:09:30.000Z,5.28
2022-11-17T13:12:04.164Z,5.30
2022-11-17T13:14:34.105Z,5.46
2022-11-17T13:17:03.434Z,5.49
2022-11-17T13:19:37.428Z,5.27
2022-11-17T13:22:07.431Z,5.47
2022-11-17T13:24:37.351Z,5.38
2022-11-17T13:27:08.306Z,5.39
2022-11-17T13:29:37.872Z,5.42
2022-11-17T13:32:17.292Z,5.35
2022-11-17T13:34:57.159Z,5.34
2022-11-17T13:37:28.559Z,5.54
2022-11-17T13:39:58.559Z,5.55
2022-11-17T13:42:28.884Z,5.55
2022-11-17T13:45:00.865Z,5.51
2022-11-17T13:47:42.128Z,5.58
2022-11-17T13:50:23.279Z,5.56
2022-11-17T13:52:55.015Z,5.53
2022-11-17T13:55:23.847Z,5.53
2022-11-17T13:57:57.652Z,5.50
2022-11-17T14:00:27.072Z,5.55
2022-11-17T14:02:55.861Z,5.63
2022-11-17T14:05:26.383Z,5.61
2022-11-17T14:07:56.697Z,5.57
2022-11-17T14:10:30.498Z,5.65
2022-11-17T14:13:20.278Z,5.67
2022-11-17T14:15:56.460Z,5.66
2022-11-17T14:18:29.978Z,5.60
2022-11-17T14:21:13.393Z,5.58
2022-11-17T14:23:41.824Z,5.59
2022-11-17T14:26:19.176Z,5.55
2022-11-17T14:28:48.131Z,5.52
2022-11-17T14:31:17.732Z,5.62
2022-11-17T14:33:45.826Z,5.64
2022-11-17T14:36:16.177Z,5.64
2022-11-17T14:38:44.977Z,5.57
2022-11-17T14:41:12.783Z,5.57
2022-11-17T14:43:40.797Z,5.63
2022-11-17T14:46:18.571Z,5.54
2022-11-17T14:48:46.578Z,5.51
2022-11-17T14:51:16.141Z,5.60
2022-11-17T14:53:45.020Z,5.57
2022-11-17T14:56:16.058Z,5.69
2022-11-17T14:58:44.117Z,5.70
2022-11-17T15:01:14.860Z,5.71
2022-11-17T15:03:45.039Z,5.78
2022-11-17T15:06:19.318Z,5.71
2022-11-17T15:08:56.461Z,5.69
2022-11-17T15:11:25.724Z,5.74
2022-11-17T15:13:53.733Z,5.69
2022-11-17T15:16:21.464Z,5.56
2022-11-17T15:18:50.693Z,5.61
2022-11-17T15:21:19.029Z,5.65
2022-11-17T15:23:47.041Z,5.63
2022-11-17T15:26:16.989Z,5.67
2022-11-17T15:28:45.818Z,5.65
2022-11-17T15:31:15.754Z,5.74
2022-11-17T15:33:45.411Z,5.74
2022-11-17T15:36:16.665Z,5.74
2022-11-17T15:38:46.404Z,5.72
2022-11-17T15:41:15.623Z,5.90
2022-11-17T15:43:45.295Z,5.88
2022-11-17T15:46:15.299Z,5.91
2022-11-17T15:48:45.014Z,5.99
2022-11-17T15:51:15.778Z,5.89
2022-11-17T15:53:44.767Z,5.89
2022-11-17T15:56:14.317Z,5.80
2022-11-17T15:58:43.624Z,5.64
2022-11-17T16:01:13.825Z,5.72
2022-11-17T16:03:42.609Z,5.92
2022-11-17T16:06:11.287Z,5.71
2022-11-17T16:08:40.840Z,5.68
2022-11-17T16:11:09.132Z,5.77
2022-11-17T16:13:38.547Z,5.84
2022-11-17T16:16:07.372Z,5.79
2022-11-17T16:18:35.939Z,5.82
2022-11-17T16:21:05.352Z,5.82
2022-11-17T16:23:40.123Z,5.71
2022-11-17T16:26:08.635Z,5.66
2022-11-17T16:28:36.307Z,5.74
2022-11-17T16:31:14.306Z,5.70
2022-11-17T16:33:47.218Z,5.71
2022-11-17T16:36:15.359Z,5.68
2022-11-17T16:39:02.302Z,5.62
2022-11-17T16:41:32.900Z,5.76
2022-11-17T16:44:00.991Z,5.68
2022-11-17T16:46:31.157Z,5.71
2022-11-17T16:49:02.684Z,5.69
2022-11-17T16:51:30.437Z,5.64
2022-11-17T16:54:03.965Z,5.76
2022-11-17T16:56:33.117Z,5.72
2022-11-17T16:59:01.386Z,5.71
2022-11-17T17:01:31.784Z,5.73
2022-11-17T17:04:01.401Z,5.71
2022-11-17T17:06:29.801Z,5.79
2022-11-17T17:08:58.977Z,5.79
2022-11-17T17:11:29.296Z,5.81
2022-11-17T17:13:57.996Z,5.74
2022-11-17T17:16:26.034Z,5.79
2022-11-17T17:18:59.581Z,5.74
2022-11-17T17:21:29.004Z,5.76
2022-11-17T17:23:57.826Z,5.81
2022-11-17T17:26:29.205Z,5.82
2022-11-17T17:28:59.996Z,5.83
2022-11-17T17:31:31.735Z,5.77
2022-11-17T17:34:00.879Z,5.72
2022-11-17T17:36:29.741Z,5.82
2022-11-17T17:38:59.679Z,5.82
2022-11-17T17:41:30.986Z,5.77
2022-11-17T17:44:00.563Z,5.65
2022-11-17T17:46:30.931Z,5.73
2022-11-17T17:48:59.499Z,5.80
2022-11-17T17:51:28.557Z,5.90
2022-11-17T17:53:58.264Z,6.08
2022-11-17T17:56:26.461Z,6.09
2022-11-17T17:58:56.580Z,6.04
2022-11-17T18:01:26.293Z,6.05
2022-11-17T18:04:00.903Z,5.97
2022-11-17T18:06:28.671Z,6.06
2022-11-17T18:08:57.270Z,6.03
2022-11-17T18:11:25.557Z,6.12
2022-11-17T18:13:54.124Z,5.93
2022-11-17T18:16:25.111Z,5.95
2022-11-17T18:18:58.025Z,5.92
2022-11-17T18:21:27.049Z,5.98
2022-11-17T18:23:55.779Z,5.99
2022-11-17T18:26:25.310Z,5.92
2022-11-17T18:28:55.734Z,5.94
2022-11-17T18:31:27.945Z,6.14
2022-11-17T18:33:57.845Z,6.38
2022-11-17T18:36:26.358Z,6.40
2022-11-17T18:38:54.918Z,6.47
2022-11-17T18:41:24.016Z,6.57
2022-11-17T18:43:52.485Z,6.40
2022-11-17T18:46:22.208Z,6.34
2022-11-17T18:48:52.656Z,6.31
2022-11-17T18:51:22.608Z,6.26
2022-11-17T18:53:51.911Z,6.33
2022-11-17T18:56:22.364Z,6.28
2022-11-17T18:58:50.284Z,6.26
2022-11-17T19:01:20.143Z,6.37
2022-11-17T19:03:49.957Z,6.24
2022-11-17T19:06:20.462Z,6.20
2022-11-17T19:08:49.072Z,6.22
2022-11-17T19:11:18.520Z,6.16
2022-11-17T19:13:47.344Z,6.08
2022-11-17T19:16:17.049Z,6.13
2022-11-17T19:18:46.765Z,5.93
2022-11-17T19:21:20.499Z,6.10
2022-11-17T19:23:52.170Z,6.00
2022-11-17T19:26:21.868Z,6.11
2022-11-17T19:28:50.441Z,6.08
2022-11-17T19:31:20.201Z,6.07
2022-11-17T19:33:49.105Z,6.10
2022-11-17T19:36:20.010Z,5.97
2022-11-17T19:38:52.531Z,6.05
2022-11-17T19:41:22.301Z,6.05
2022-11-17T19:43:53.214Z,6.13
2022-11-17T19:46:22.358Z,6.12
2022-11-17T19:48:53.302Z,6.09
2022-11-17T19:51:26.143Z,5.97
2022-11-17T19:53:56.205Z,6.02
2022-11-17T19:56:25.394Z,5.95
2022-11-17T19:58:55.546Z,6.09
2022-11-17T20:01:25.217Z,6.03
2022-11-17T20:03:53.664Z,6.12
2022-11-17T20:06:26.946Z,6.15
2022-11-17T20:08:55.438Z,6.22
2022-11-17T20:11:25.143Z,6.02
2022-11-17T20:13:53.007Z,5.96
2022-11-17T20:16:24.375Z,6.00
2022-11-17T20:18:53.947Z,6.07
2022-11-17T20:21:23.739Z,5.95
2022-11-17T20:23:51.651Z,6.08
2022-11-17T20:26:22.017Z,6.09
2022-11-17T20:28:49.922Z,5.98
2022-11-17T20:31:20.138Z,6.06
2022-11-17T20:33:49.177Z,6.14
2022-11-17T20:36:19.191Z,6.09
2022-11-17T20:38:50.899Z,6.06
2022-11-17T20:41:20.725Z,6.05
2022-11-17T20:43:49.518Z,5.86
2022-11-17T20:46:17.515Z,5.97
2022-11-17T20:48:45.412Z,6.04
2022-11-17T20:51:15.005Z,6.09
2022-11-17T20:53:42.737Z,6.02
2022-11-17T20:56:14.076Z,6.06
2022-11-17T20:58:41.761Z,6.12
2022-11-17T21:01:11.280Z,6.15
2022-11-17T21:03:39.946Z,6.06
2022-11-17T21:06:08.565Z,6.15
2022-11-17T21:08:38.234Z,6.26
2022-11-17T21:11:07.599Z,6.13
2022-11-17T21:13:38.078Z,6.28
2022-11-17T21:16:09.117Z,6.32
2022-11-17T21:18:38.397Z,6.34
2022-11-17T21:21:08.920Z,6.27
2022-11-17T21:23:37.384Z,6.24
2022-11-17T21:26:06.854Z,6.22
2022-11-17T21:28:36.764Z,6.09
2022-11-17T21:31:07.538Z,6.19
2022-11-17T21:33:35.354Z,6.13
2022-11-17T21:36:03.512Z,6.05
2022-11-17T21:38:33.909Z,6.13
2022-11-17T21:41:03.613Z,6.03
2022-11-17T21:43:31.822Z,6.12
2022-11-17T21:46:04.054Z,6.13
2022-11-17T21:48:31.910Z,6.22
2022-11-17T21:51:00.088Z,6.18
2022-11-17T21:53:27.932Z,6.17
2022-11-17T21:56:01.385Z,6.24
2022-11-17T21:58:29.724Z,6.22
2022-11-17T22:00:57.749Z,6.26
2022-11-17T22:03:28.153Z,6.26
2022-11-17T22:06:02.061Z,6.25
2022-11-17T22:08:30.268Z,6.26
2022-11-17T22:10:58.002Z,6.30
2022-11-17T22:13:25.820Z,6.17
2022-11-17T22:15:53.798Z,6.12
2022-11-17T22:18:21.491Z,6.20
2022-11-17T22:20:52.552Z,6.20
2022-11-17T22:23:20.359Z,6.31
2022-11-17T22:25:55.411Z,6.37
2022-11-17T22:28:25.099Z,6.26
2022-11-17T22:30:53.886Z,6.07
2022-11-17T22:33:23.424Z,6.06
2022-11-17T22:35:52.429Z,6.02
2022-11-17T22:38:20.352Z,6.09
2022-11-17T22:40:48.597Z,6.03
2022-11-17T22:43:16.642Z,6.06
2022-11-17T22:45:46.000Z,5.93
2022-11-17T22:48:13.868Z,5.94
2022-11-17T22:50:41.570Z,5.98
2022-11-17T22:53:10.933Z,6.07
2022-11-17T22:55:38.756Z,6.01
2022-11-17T22:58:08.176Z,5.98
2022-11-17T23:00:36.222Z,6.03
2022-11-17T23:03:04.380Z,5.90
2022-11-17T23:05:32.640Z,5.81
2022-11-17T23:08:02.187Z,5.89
2022-11-17T23:10:34.492Z,5.92
2022-11-17T23:13:02.382Z,5.99
2022-11-17T23:15:32.388Z,6.04
2022-11-17T23:18:00.065Z,6.06
2022-11-17T23:20:28.036Z,6.08
2022-11-17T23:22:56.047Z,5.93
2022-11-17T23:25:24.895Z,6.05
2022-11-17T23:27:53.961Z,5.87
2022-11-17T23:30:22.555Z,5.65
2022-11-17T23:32:50.236Z,5.86
2022-11-17T23:35:18.063Z,5.87
2022-11-17T23:37:45.848Z,5.80
2022-11-17T23:40:13.740Z,5.71
2022-11-17T23:42:43.187Z,5.84
2022-11-17T23:45:12.943Z,5.93
2022-11-17T23:47:40.688Z,5.98
2022-11-17T23:50:09.416Z,5.96
2022-11-17T23:52:37.139Z,5.91
2022-11-17T23:55:05.185Z,5.94
2022-11-17T23:57:32.839Z,5.84
